createdAt,value
2023-03-05T00:02:35.571Z,100710.16
2023-03-05T00:07:32.600Z,100736.53
2023-03-05T00:12:29.688Z,100672.75
2023-03-05T00:17:35.970Z,100727.09
2023-03-05T00:22:35.331Z,100660.69
2023-03-05T00:27:32.109Z,100630.97
2023-03-05T00:32:29.136Z,100733.19
2023-03-05T00:37:25.934Z,100728.84
2023-03-05T00:42:23.465Z,100725.38
2023-03-05T00:47:20.708Z,100726.31
2023-03-05T00:52:17.553Z,100716.03
2023-03-05T00:57:14.296Z,100716.78
2023-03-05T01:02:12.036Z,100717.81
2023-03-05T01:07:08.741Z,100667.88
2023-03-05T01:12:06.133Z,100700.34
2023-03-05T01:17:03.443Z,100718.84
2023-03-05T01:22:00.989Z,100718.69
2023-03-05T01:26:58.339Z,100708.28
2023-03-05T01:31:55.132Z,100679.41
2023-03-05T01:36:51.894Z,100712.47
2023-03-05T01:41:49.340Z,100665.03
2023-03-05T01:46:46.199Z,100703.47
2023-03-05T01:51:51.280Z,100706.34
2023-03-05T01:56:52.538Z,100697.06
2023-03-05T02:01:54.530Z,100713.56
2023-03-05T02:06:51.530Z,100696.75
2023-03-05T02:11:49.210Z,100693.34
2023-03-05T02:16:46.060Z,100697.53
2023-03-05T02:21:46.189Z,100707.03
2023-03-05T02:26:44.494Z,100667.88
2023-03-05T02:31:41.497Z,100709.72
2023-03-05T02:36:38.393Z,100704.09
2023-03-05T02:41:35.989Z,100688.09
2023-03-05T02:46:34.030Z,100733.56
2023-03-05T02:51:31.361Z,100713.72
2023-03-05T02:56:29.190Z,100718.13
2023-03-05T03:01:27.793Z,100699.59
2023-03-05T03:06:24.566Z,100721.84
2023-03-05T03:11:21.561Z,100633.28
2023-03-05T03:16:18.366Z,100723.69
2023-03-05T03:21:20.536Z,100721.97
2023-03-05T03:26:17.781Z,100706.31
2023-03-05T03:31:14.753Z,100713.31
2023-03-05T03:36:11.902Z,100689.59
2023-03-05T03:41:09.403Z,100691.28
2023-03-05T03:46:06.704Z,100625.22
2023-03-05T03:51:07.717Z,100690.03
2023-03-05T03:56:05.642Z,100725.88
2023-03-05T04:01:03.652Z,100661.94
2023-03-05T04:06:00.465Z,100717.34
2023-03-05T04:10:57.264Z,100637.38
2023-03-05T04:15:54.092Z,100709.88
2023-03-05T04:20:51.533Z,100708.09
2023-03-05T04:25:48.476Z,100701.66
2023-03-05T04:30:45.412Z,100647.41
2023-03-05T04:35:42.544Z,100710.34
2023-03-05T04:40:40.183Z,100664.59
2023-03-05T04:45:39.850Z,100722.75
2023-03-05T04:50:36.866Z,100720.19
2023-03-05T04:55:33.877Z,100728.97
2023-03-05T05:00:31.406Z,100732.44
2023-03-05T05:05:28.773Z,100736.75
2023-03-05T05:10:26.260Z,100688.94
2023-03-05T05:15:23.516Z,100735.59
2023-03-05T05:20:21.278Z,100720.97
2023-03-05T05:25:18.183Z,100714.25
2023-03-05T05:30:15.340Z,100749.94
2023-03-05T05:35:12.492Z,100753.63
2023-03-05T05:40:11.554Z,100772.41
2023-03-05T05:45:10.013Z,100705.06
2023-03-05T05:50:07.599Z,100782.44
2023-03-05T05:55:05.484Z,100784.72
2023-03-05T06:00:05.276Z,100785.13
2023-03-05T06:05:11.452Z,100778.06
2023-03-05T06:10:09.742Z,100771.34
2023-03-05T06:15:08.800Z,100790.31
2023-03-05T06:20:06.682Z,100734.56
2023-03-05T06:25:06.169Z,100740.84
2023-03-05T06:30:04.402Z,100800.75
2023-03-05T06:35:02.152Z,100790.91
2023-03-05T06:39:59.070Z,100804.91
2023-03-05T06:44:56.032Z,100792.09
2023-03-05T06:49:52.975Z,100794.13
2023-03-05T06:54:50.629Z,100779.09
2023-03-05T06:59:48.012Z,100735.97
2023-03-05T07:04:45.109Z,100775.06
2023-03-05T07:09:48.163Z,100783.97
2023-03-05T07:14:45.836Z,100806.81
2023-03-05T07:19:45.120Z,100809.16
2023-03-05T07:24:41.952Z,100745.81
2023-03-05T07:29:38.906Z,100785.59
2023-03-05T07:34:38.265Z,100795.59
2023-03-05T07:39:35.709Z,100794.47
2023-03-05T07:44:33.587Z,100741.66
2023-03-05T07:49:30.537Z,100784.75
2023-03-05T07:54:27.960Z,100748.50
2023-03-05T07:59:24.751Z,100784.09
2023-03-05T08:04:22.999Z,100765.47
2023-03-05T08:09:20.014Z,100783.81
2023-03-05T08:14:17.765Z,100772.97
2023-03-05T08:19:15.171Z,100776.63
2023-03-05T08:24:12.984Z,100750.56
2023-03-05T08:29:10.648Z,100762.19
2023-03-05T08:34:08.088Z,100719.78
2023-03-05T08:39:06.247Z,100736.78
2023-03-05T08:44:03.457Z,100696.38
2023-03-05T08:49:00.528Z,100742.31
2023-03-05T08:53:59.432Z,100738.50
2023-03-05T08:58:56.217Z,100653.00
2023-03-05T09:03:53.722Z,100691.13
2023-03-05T09:08:50.864Z,100696.94
2023-03-05T09:13:49.287Z,100713.31
2023-03-05T09:18:46.507Z,100650.13
2023-03-05T09:23:44.803Z,100697.53
2023-03-05T09:28:42.284Z,100696.56
2023-03-05T09:33:40.057Z,100675.50
2023-03-05T09:38:38.601Z,100660.78
2023-03-05T09:43:49.465Z,100664.13
2023-03-05T09:48:51.683Z,100570.44
2023-03-05T09:53:53.944Z,100641.59
2023-03-05T09:58:56.099Z,100600.03
2023-03-05T10:03:58.519Z,100581.31
2023-03-05T10:09:00.134Z,100541.22
2023-03-05T10:14:00.127Z,100514.25
2023-03-05T10:19:03.870Z,100603.00
2023-03-05T10:24:13.416Z,100579.66
2023-03-05T10:29:23.012Z,100583.66
2023-03-05T10:34:40.515Z,100596.00
2023-03-05T10:39:59.680Z,100493.13
2023-03-05T10:45:05.916Z,100538.88
2023-03-05T10:50:17.226Z,100553.03
2023-03-05T10:55:15.839Z,100540.84
2023-03-05T11:00:20.619Z,100543.50
2023-03-05T11:05:45.289Z,100547.81
2023-03-05T11:10:46.617Z,100534.28
2023-03-05T11:15:43.724Z,100504.59
2023-03-05T11:20:46.507Z,100543.72
2023-03-05T11:26:04.275Z,100538.38
2023-03-05T11:31:08.047Z,100537.34
2023-03-05T11:36:26.722Z,100530.44
2023-03-05T11:41:29.662Z,100495.47
2023-03-05T11:46:27.766Z,100514.38
2023-03-05T11:51:31.990Z,100503.59
2023-03-05T11:56:33.532Z,100506.41
2023-03-05T12:01:36.732Z,100491.41
2023-03-05T12:06:38.593Z,100451.34
2023-03-05T12:11:36.866Z,100436.81
2023-03-05T12:16:39.458Z,100459.34
2023-03-05T12:21:38.085Z,100469.66
2023-03-05T12:27:05.357Z,100387.28
2023-03-05T12:32:03.536Z,100455.47
2023-03-05T12:37:00.358Z,100423.34
2023-03-05T12:41:57.992Z,100417.22
2023-03-05T12:47:22.812Z,100440.50
2023-03-05T12:52:26.370Z,100414.78
2023-03-05T12:57:28.868Z,100405.09
2023-03-05T13:02:31.872Z,100362.09
2023-03-05T13:07:28.819Z,100429.25
2023-03-05T13:12:29.296Z,100427.41
2023-03-05T13:17:29.653Z,100399.84
2023-03-05T13:22:27.653Z,100385.44
2023-03-05T13:27:30.534Z,100397.97
2023-03-05T13:32:30.312Z,100417.31
2023-03-05T13:37:30.324Z,100375.78
2023-03-05T13:42:30.856Z,100424.75
2023-03-05T13:47:29.829Z,100433.22
2023-03-05T13:52:29.138Z,100423.38
2023-03-05T13:57:36.572Z,100425.44
2023-03-05T14:02:34.264Z,100417.16
2023-03-05T14:07:38.589Z,100378.19
2023-03-05T14:12:45.180Z,100362.00
2023-03-05T14:17:43.292Z,100411.50
2023-03-05T14:22:42.874Z,100406.16
2023-03-05T14:27:40.550Z,100404.66
2023-03-05T14:32:37.652Z,100345.00
2023-03-05T14:37:36.532Z,100399.34
2023-03-05T14:42:37.579Z,100333.38
2023-03-05T14:47:36.605Z,100398.81
2023-03-05T14:52:34.589Z,100332.63
2023-03-05T14:57:32.365Z,100403.06
2023-03-05T15:02:29.510Z,100345.75
2023-03-05T15:07:30.954Z,100329.06
2023-03-05T15:12:28.043Z,100347.66
2023-03-05T15:17:33.660Z,100370.91
2023-03-05T15:22:49.093Z,100348.53
2023-03-05T15:27:46.214Z,100391.59
2023-03-05T15:32:43.105Z,100354.22
2023-03-05T15:37:42.015Z,100376.81
2023-03-05T15:42:38.884Z,100315.72
2023-03-05T15:47:38.728Z,100374.34
2023-03-05T15:52:36.052Z,100372.72
2023-03-05T15:57:37.110Z,100305.63
2023-03-05T16:02:35.023Z,100384.63
2023-03-05T16:07:37.294Z,100365.47
2023-03-05T16:12:42.564Z,100369.44
2023-03-05T16:17:44.030Z,100354.63
2023-03-05T16:22:44.021Z,100394.88
2023-03-05T16:27:42.300Z,100387.75
2023-03-05T16:32:40.840Z,100366.00
2023-03-05T16:37:39.236Z,100317.88
2023-03-05T16:42:48.133Z,100346.72
2023-03-05T16:47:55.264Z,100373.44
2023-03-05T16:52:52.421Z,100384.66
2023-03-05T16:57:50.477Z,100409.66
2023-03-05T17:02:48.114Z,100420.56
2023-03-05T17:07:50.399Z,100362.44
2023-03-05T17:12:52.167Z,100404.09
2023-03-05T17:17:49.392Z,100390.09
2023-03-05T17:22:47.900Z,100380.38
2023-03-05T17:27:44.816Z,100305.22
2023-03-05T17:32:42.965Z,100311.00
2023-03-05T17:37:39.961Z,100398.75
2023-03-05T17:42:37.371Z,100388.19
2023-03-05T17:47:35.075Z,100359.63
2023-03-05T17:52:32.939Z,100400.63
2023-03-05T17:57:29.977Z,100444.81
2023-03-05T18:02:27.968Z,100393.56
2023-03-05T18:07:25.210Z,100448.38
2023-03-05T18:12:22.999Z,100456.53
2023-03-05T18:17:21.713Z,100420.31
2023-03-05T18:22:18.752Z,100463.66
2023-03-05T18:27:15.756Z,100476.88
2023-03-05T18:32:14.719Z,100431.88
2023-03-05T18:37:12.501Z,100416.38
2023-03-05T18:42:12.688Z,100482.91
2023-03-05T18:47:09.586Z,100493.72
2023-03-05T18:52:10.449Z,100415.34
2023-03-05T18:57:14.260Z,100475.16
2023-03-05T19:02:15.279Z,100500.13
2023-03-05T19:07:17.170Z,100513.66
2023-03-05T19:12:14.212Z,100513.97
2023-03-05T19:17:13.288Z,100527.50
2023-03-05T19:22:13.789Z,100527.84
2023-03-05T19:27:13.412Z,100465.41
2023-03-05T19:32:12.387Z,100493.19
2023-03-05T19:37:10.441Z,100516.66
2023-03-05T19:42:11.419Z,100518.88
2023-03-05T19:47:09.842Z,100499.59
2023-03-05T19:52:06.936Z,100521.22
2023-03-05T19:57:04.059Z,100524.00
2023-03-05T20:02:01.761Z,100541.41
2023-03-05T20:06:58.756Z,100542.72
2023-03-05T20:11:57.281Z,100423.03
2023-03-05T20:17:01.419Z,100463.25
2023-03-05T20:21:59.012Z,100449.00
2023-03-05T20:26:57.872Z,100567.63
2023-03-05T20:31:56.310Z,100546.59
2023-03-05T20:36:53.159Z,100586.88
2023-03-05T20:41:50.831Z,100592.34
2023-03-05T20:47:26.940Z,100527.84
2023-03-05T20:52:31.935Z,100572.44
2023-03-05T20:57:29.660Z,100553.13
2023-03-05T21:02:29.078Z,100549.94
2023-03-05T21:07:28.959Z,100547.59
2023-03-05T21:12:25.977Z,100547.03
2023-03-05T21:17:23.569Z,100589.03
2023-03-05T21:22:20.465Z,100579.03
2023-03-05T21:27:17.386Z,100520.81
2023-03-05T21:32:14.673Z,100584.72
2023-03-05T21:37:12.329Z,100518.50
2023-03-05T21:42:11.181Z,100573.88
2023-03-05T21:47:08.350Z,100517.56
2023-03-05T21:52:08.964Z,100576.06
2023-03-05T21:57:07.933Z,100531.41
2023-03-05T22:02:04.823Z,100530.53
2023-03-05T22:07:01.655Z,100594.56
2023-03-05T22:11:58.545Z,100577.50
2023-03-05T22:17:01.538Z,100587.69
2023-03-05T22:21:58.682Z,100605.25
2023-03-05T22:26:55.620Z,100606.66
2023-03-05T22:31:54.232Z,100549.50
2023-03-05T22:36:51.750Z,100564.34
2023-03-05T22:41:48.692Z,100560.59
2023-03-05T22:46:45.836Z,100568.03
2023-03-05T22:51:42.836Z,100460.63
2023-03-05T22:56:40.387Z,100540.22
2023-03-05T23:01:37.296Z,100527.19
2023-03-05T23:06:34.244Z,100477.16
2023-03-05T23:11:35.540Z,100576.28
2023-03-05T23:16:43.345Z,100556.06
2023-03-05T23:21:40.301Z,100537.69
2023-03-05T23:26:37.112Z,100560.78
2023-03-05T23:31:33.859Z,100587.47
2023-03-05T23:36:31.462Z,100578.03
2023-03-05T23:41:28.722Z,100527.44
2023-03-05T23:46:25.625Z,100575.13
2023-03-05T23:51:22.478Z,100562.72
2023-03-05T23:56:20.089Z,100572.13
